createdAt,value
2023-03-22T00:01:14.129Z,18.85
2023-03-22T00:03:43.476Z,17.17
2023-03-22T00:06:12.401Z,17.73
2023-03-22T00:08:41.425Z,16.67
2023-03-22T00:11:09.951Z,18.50
2023-03-22T00:13:38.460Z,19.63
2023-03-22T00:16:07.425Z,18.17
2023-03-22T00:18:36.164Z,17.65
2023-03-22T00:21:05.492Z,16.82
2023-03-22T00:23:33.932Z,18.23
2023-03-22T00:26:02.724Z,16.77
2023-03-22T00:28:31.352Z,18.00
2023-03-22T00:31:00.755Z,18.67
2023-03-22T00:33:30.401Z,16.07
2023-03-22T00:36:00.442Z,17.48
2023-03-22T00:38:41.643Z,16.40
2023-03-22T00:41:02.909Z,16.87
2023-03-22T00:43:31.493Z,16.47
2023-03-22T00:45:59.986Z,17.30
2023-03-22T00:48:28.484Z,15.50
2023-03-22T00:50:56.960Z,16.33
2023-03-22T00:53:25.953Z,16.20
2023-03-22T00:55:54.411Z,17.30
2023-03-22T00:58:23.013Z,15.83
2023-03-22T01:00:52.066Z,17.07
2023-03-22T01:03:21.884Z,16.17
2023-03-22T01:05:52.327Z,15.90
2023-03-22T01:08:21.080Z,16.27
2023-03-22T01:10:50.291Z,15.03
2023-03-22T01:13:18.718Z,14.90
2023-03-22T01:15:48.877Z,15.73
2023-03-22T01:18:18.126Z,14.80
2023-03-22T01:20:46.667Z,15.73
2023-03-22T01:23:15.308Z,14.77
2023-03-22T01:25:43.755Z,15.47
2023-03-22T01:28:12.304Z,15.30
2023-03-22T01:30:41.723Z,15.38
2023-03-22T01:33:10.409Z,15.07
2023-03-22T01:35:39.801Z,16.23
2023-03-22T01:38:08.637Z,15.03
2023-03-22T01:40:39.114Z,13.93
2023-03-22T01:43:09.416Z,13.73
2023-03-22T01:45:39.901Z,15.15
2023-03-22T01:48:28.295Z,15.27
2023-03-22T01:51:03.094Z,14.67
2023-03-22T01:53:37.932Z,14.20
2023-03-22T01:56:07.328Z,15.53
2023-03-22T01:58:37.496Z,14.93
2023-03-22T02:01:08.651Z,13.35
2023-03-22T02:03:52.334Z,14.57
2023-03-22T02:06:21.649Z,16.97
2023-03-22T02:08:52.852Z,14.95
2023-03-22T02:11:22.929Z,13.37
2023-03-22T02:13:53.996Z,15.73
2023-03-22T02:16:37.392Z,15.10
2023-03-22T02:19:15.134Z,14.20
2023-03-22T02:22:01.918Z,15.37
2023-03-22T02:24:32.784Z,13.90
2023-03-22T02:27:09.002Z,14.10
2023-03-22T02:29:41.907Z,15.27
2023-03-22T02:32:11.872Z,14.33
2023-03-22T02:34:51.518Z,14.13
2023-03-22T02:37:24.447Z,14.90
2023-03-22T02:39:58.053Z,13.85
2023-03-22T02:42:33.935Z,13.53
2023-03-22T02:45:04.355Z,14.73
2023-03-22T02:47:38.360Z,14.67
2023-03-22T02:50:11.954Z,16.37
2023-03-22T02:52:46.218Z,13.57
2023-03-22T02:55:19.347Z,14.37
2023-03-22T02:57:49.702Z,14.75
2023-03-22T03:00:18.584Z,14.70
2023-03-22T03:02:49.138Z,13.40
2023-03-22T03:05:18.684Z,14.80
2023-03-22T03:07:51.404Z,15.57
2023-03-22T03:10:21.404Z,12.87
2023-03-22T03:12:49.990Z,13.37
2023-03-22T03:15:20.201Z,14.03
2023-03-22T03:18:06.680Z,12.70
2023-03-22T03:20:41.543Z,12.13
2023-03-22T03:23:13.356Z,14.67
2023-03-22T03:28:15.017Z,13.10
2023-03-22T03:30:48.208Z,13.30
2023-03-22T03:33:18.197Z,13.10
2023-03-22T03:35:54.505Z,13.85
2023-03-22T03:38:24.563Z,14.10
2023-03-22T03:40:58.056Z,13.30
2023-03-22T03:43:26.984Z,13.03
2023-03-22T03:45:55.879Z,12.93
2023-03-22T03:48:26.129Z,13.97
2023-03-22T03:50:54.902Z,11.03
2023-03-22T03:53:23.482Z,14.27
2023-03-22T03:55:51.940Z,12.03
2023-03-22T03:58:20.636Z,13.13
2023-03-22T04:00:49.732Z,13.27
2023-03-22T04:03:22.926Z,13.77
2023-03-22T04:06:02.224Z,12.10
2023-03-22T04:08:31.356Z,12.80
2023-03-22T04:11:00.129Z,15.10
2023-03-22T04:13:29.758Z,14.67
2023-03-22T04:16:01.448Z,13.37
2023-03-22T04:18:32.141Z,13.07
2023-03-22T04:21:03.363Z,14.07
2023-03-22T04:23:33.702Z,13.68
2023-03-22T04:26:02.897Z,13.20
2023-03-22T04:28:33.428Z,14.37
2023-03-22T04:31:03.993Z,14.20
2023-03-22T04:33:47.343Z,14.13
2023-03-22T04:36:20.207Z,13.27
2023-03-22T04:38:59.438Z,14.10
2023-03-22T04:41:29.481Z,14.90
2023-03-22T04:43:59.880Z,17.30
2023-03-22T04:46:28.965Z,15.32
2023-03-22T04:48:59.878Z,17.52
2023-03-22T04:51:30.232Z,14.90
2023-03-22T04:54:06.144Z,16.13
2023-03-22T04:56:35.622Z,17.57
2023-03-22T04:59:04.127Z,16.77
2023-03-22T05:01:33.293Z,16.48
2023-03-22T05:04:03.332Z,15.50
2023-03-22T05:06:34.855Z,16.30
2023-03-22T05:09:05.150Z,15.50
2023-03-22T05:11:33.865Z,15.77
2023-03-22T05:14:07.099Z,16.03
2023-03-22T05:16:36.784Z,15.67
2023-03-22T05:19:06.769Z,15.43
2023-03-22T05:21:36.805Z,13.62
2023-03-22T05:24:05.939Z,13.50
2023-03-22T05:26:36.438Z,14.87
2023-03-22T05:29:05.669Z,14.73
2023-03-22T05:31:44.702Z,13.90
2023-03-22T05:34:13.542Z,14.73
2023-03-22T05:36:42.659Z,15.13
2023-03-22T05:39:19.051Z,15.70
2023-03-22T05:41:47.536Z,16.57
2023-03-22T05:44:16.397Z,14.83
2023-03-22T05:46:52.617Z,15.83
2023-03-22T05:49:22.791Z,16.40
2023-03-22T05:51:51.367Z,17.60
2023-03-22T05:54:20.704Z,17.17
2023-03-22T05:56:53.133Z,19.37
2023-03-22T06:01:49.744Z,17.80
2023-03-22T06:04:22.700Z,19.50
2023-03-22T06:06:56.289Z,20.25
2023-03-22T06:09:26.953Z,19.00
2023-03-22T06:11:55.586Z,18.77
2023-03-22T06:14:24.296Z,16.97
2023-03-22T06:17:03.397Z,16.63
2023-03-22T06:19:32.241Z,16.63
2023-03-22T06:22:02.374Z,17.77
2023-03-22T06:24:32.539Z,17.53
2023-03-22T06:27:01.254Z,16.17
2023-03-22T06:29:29.983Z,17.27
2023-03-22T06:32:00.548Z,17.12
2023-03-22T06:34:29.712Z,15.80
2023-03-22T06:36:59.027Z,15.60
2023-03-22T06:39:34.772Z,16.00
2023-03-22T06:42:04.014Z,14.30
2023-03-22T06:44:32.688Z,16.00
2023-03-22T06:47:11.894Z,14.03
2023-03-22T06:49:45.075Z,14.77
2023-03-22T06:52:15.182Z,14.90
2023-03-22T06:54:44.109Z,14.28
2023-03-22T06:57:12.968Z,12.88
2023-03-22T06:59:41.827Z,13.38
2023-03-22T07:02:11.546Z,14.47
2023-03-22T07:04:41.246Z,13.10
2023-03-22T07:07:09.988Z,12.43
2023-03-22T07:09:39.786Z,13.53
2023-03-22T07:12:08.281Z,12.07
2023-03-22T07:14:37.006Z,15.07
2023-03-22T07:17:07.238Z,13.20
2023-03-22T07:19:35.876Z,13.20
2023-03-22T07:22:05.762Z,13.57
2023-03-22T07:24:37.204Z,13.60
2023-03-22T07:27:05.335Z,14.13
2023-03-22T07:29:34.441Z,14.53
2023-03-22T07:32:03.178Z,14.13
2023-03-22T07:34:33.089Z,14.70
2023-03-22T07:37:03.310Z,14.13
2023-03-22T07:39:32.167Z,16.17
2023-03-22T07:42:01.006Z,14.73
2023-03-22T07:44:42.947Z,16.20
2023-03-22T07:47:30.874Z,15.27
2023-03-22T07:49:59.401Z,14.27
2023-03-22T07:52:29.718Z,16.17
2023-03-22T07:54:58.859Z,14.53
2023-03-22T07:57:27.329Z,13.30
2023-03-22T07:59:57.479Z,12.20
2023-03-22T08:02:27.804Z,11.53
2023-03-22T08:04:56.863Z,11.60
2023-03-22T08:07:32.217Z,10.93
2023-03-22T08:10:00.936Z,10.82
2023-03-22T08:12:29.493Z,10.83
2023-03-22T08:14:59.754Z,9.33
2023-03-22T08:17:30.232Z,10.67
2023-03-22T08:19:58.780Z,9.43
2023-03-22T08:22:32.651Z,8.63
2023-03-22T08:25:18.935Z,10.40
2023-03-22T08:27:48.484Z,9.47
2023-03-22T08:30:17.344Z,8.57
2023-03-22T08:32:46.138Z,9.73
2023-03-22T08:35:14.409Z,9.47
2023-03-22T08:37:42.964Z,9.37
2023-03-22T08:40:11.944Z,9.20
2023-03-22T08:42:42.187Z,8.98
2023-03-22T08:45:11.140Z,8.33
2023-03-22T08:47:41.578Z,9.47
2023-03-22T08:50:11.539Z,8.70
2023-03-22T08:52:47.396Z,8.23
2023-03-22T08:55:29.952Z,8.78
2023-03-22T08:58:12.752Z,7.20
2023-03-22T09:00:58.239Z,6.50
2023-03-22T09:03:28.414Z,6.10
2023-03-22T09:05:57.404Z,6.35
2023-03-22T09:08:28.634Z,5.20
2023-03-22T09:10:59.332Z,4.67
2023-03-22T09:13:29.667Z,4.67
2023-03-22T09:15:59.870Z,5.33
2023-03-22T09:18:30.111Z,4.87
2023-03-22T09:21:00.255Z,4.53
2023-03-22T09:23:31.981Z,5.33
2023-03-22T09:26:01.490Z,5.13
2023-03-22T09:28:30.907Z,4.57
2023-03-22T09:31:02.084Z,4.67
2023-03-22T09:33:31.336Z,4.45
2023-03-22T09:36:00.124Z,4.50
2023-03-22T09:38:30.893Z,4.43
2023-03-22T09:41:02.089Z,4.87
2023-03-22T09:43:36.925Z,5.60
2023-03-22T09:46:07.232Z,4.17
2023-03-22T09:48:37.165Z,5.10
2023-03-22T09:51:07.663Z,4.83
2023-03-22T09:53:35.926Z,4.77
2023-03-22T09:56:09.300Z,5.17
2023-03-22T09:58:39.738Z,4.65
2023-03-22T10:01:20.854Z,4.53
2023-03-22T10:03:55.562Z,4.67
2023-03-22T10:06:24.856Z,4.83
2023-03-22T10:09:13.859Z,5.30
2023-03-22T10:11:47.031Z,4.90
2023-03-22T10:14:31.790Z,4.80
2023-03-22T10:17:03.593Z,4.65
2023-03-22T10:22:01.361Z,4.70
2023-03-22T10:24:31.588Z,4.42
2023-03-22T10:27:00.094Z,3.73
2023-03-22T10:29:33.118Z,3.87
2023-03-22T10:32:09.006Z,5.30
2023-03-22T10:34:37.476Z,4.40
2023-03-22T10:37:06.478Z,4.10
2023-03-22T10:39:40.128Z,4.07
2023-03-22T10:42:16.500Z,4.03
2023-03-22T10:44:49.719Z,4.47
2023-03-22T10:47:19.765Z,3.97
2023-03-22T10:49:51.525Z,5.93
2023-03-22T10:52:33.675Z,4.73
2023-03-22T10:55:04.570Z,5.40
2023-03-22T10:57:32.893Z,4.97
2023-03-22T11:00:01.437Z,5.10
2023-03-22T11:02:31.903Z,4.67
2023-03-22T11:05:01.875Z,5.10
2023-03-22T11:07:31.893Z,4.27
2023-03-22T11:10:10.880Z,5.93
2023-03-22T11:12:43.598Z,4.63
2023-03-22T11:15:13.584Z,4.77
2023-03-22T11:17:43.322Z,4.93
2023-03-22T11:20:13.453Z,4.77
2023-03-22T11:22:43.251Z,4.23
2023-03-22T11:25:16.540Z,5.73
2023-03-22T11:27:46.717Z,4.93
2023-03-22T11:30:22.594Z,5.20
2023-03-22T11:32:52.633Z,5.57
2023-03-22T11:35:28.584Z,5.37
2023-03-22T11:37:57.117Z,5.93
2023-03-22T11:40:36.542Z,5.57
2023-03-22T11:43:12.876Z,5.37
2023-03-22T11:45:43.259Z,5.67
2023-03-22T11:48:16.178Z,5.30
2023-03-22T11:50:45.835Z,5.50
2023-03-22T11:53:16.581Z,5.17
2023-03-22T11:55:46.175Z,6.17
2023-03-22T11:58:31.580Z,5.90
2023-03-22T12:01:01.507Z,5.70
2023-03-22T12:03:31.923Z,6.53
2023-03-22T12:06:01.914Z,5.57
2023-03-22T12:08:44.092Z,6.37
2023-03-22T12:11:14.055Z,4.90
2023-03-22T12:13:53.382Z,4.83
2023-03-22T12:16:24.883Z,5.90
2023-03-22T12:19:04.009Z,4.87
2023-03-22T12:21:33.840Z,5.90
2023-03-22T12:24:03.349Z,4.67
2023-03-22T12:26:33.531Z,5.50
2023-03-22T12:29:09.769Z,4.57
2023-03-22T12:31:40.081Z,4.50
2023-03-22T12:34:09.934Z,4.10
2023-03-22T12:36:39.935Z,3.67
2023-03-22T12:39:08.926Z,3.87
2023-03-22T12:41:41.740Z,4.03
2023-03-22T12:44:20.714Z,3.93
2023-03-22T12:46:53.749Z,3.60
2023-03-22T12:49:29.403Z,3.70
2023-03-22T12:51:59.559Z,2.80
2023-03-22T12:54:30.710Z,2.40
2023-03-22T12:59:27.905Z,3.08
2023-03-22T13:02:00.759Z,2.67
2023-03-22T13:04:41.494Z,1.83
2023-03-22T13:07:17.463Z,3.00
2023-03-22T13:09:47.523Z,2.47
2023-03-22T13:12:19.887Z,2.30
2023-03-22T13:14:52.968Z,2.30
2023-03-22T13:17:26.124Z,2.30
2023-03-22T13:19:55.653Z,2.50
2023-03-22T13:22:41.751Z,2.10
2023-03-22T13:25:15.962Z,2.80
2023-03-22T13:27:55.086Z,2.67
2023-03-22T13:30:27.738Z,2.17
2023-03-22T13:33:08.073Z,3.00
2023-03-22T13:35:50.994Z,2.90
2023-03-22T13:38:24.070Z,1.93
2023-03-22T13:41:06.459Z,2.80
2023-03-22T13:43:39.289Z,2.50
2023-03-22T13:46:09.136Z,2.93
2023-03-22T13:48:53.965Z,2.40
2023-03-22T13:51:25.785Z,2.60
2023-03-22T13:53:55.975Z,3.10
2023-03-22T13:56:44.865Z,3.23
2023-03-22T13:59:14.778Z,2.73
2023-03-22T14:01:50.474Z,2.37
2023-03-22T14:04:22.175Z,2.43
2023-03-22T14:06:52.204Z,2.53
2023-03-22T14:09:22.326Z,2.77
2023-03-22T14:11:52.041Z,3.30
2023-03-22T14:14:21.903Z,2.63
2023-03-22T14:16:51.182Z,2.40
2023-03-22T14:19:24.073Z,3.00
